X  Luk Metar data     KCLT Charlotte Douglas International Airport
Temperatur
27°C Temperatur
21°C Duggpunkt
70% Fugtighed



Vind
3 M/S
6 MPT
10 KM/T
5 KNOB



90°
Ø
Nuværende forhold

Delvis skyet Delvis skyet
Tryk 1018.63 (hPa) - 30.08 (inHg)
Sigt 10 (mil) - 16.1 (km)
Lufthavn
Lufthavnskode KCLT

Lokation: Charlotte Douglas International Airport
Afstand: 14 (km)

Metar:
KCLT 192352Z 09005KT 10SM FEW030 SCT100 SCT160 BKN250 27/21 A3008 RMK AO2 SLP192 60001 T02670211 10289 20250 53011

Tid: 19-07-2024 7:52 pm EDT